sensor_id;sensor_type;location;lat;lon;timestamp;P1;durP1;ratioP1;P2;durP2;ratioP2
22318;SDS011;11327;52.334;9.506;2023-02-22T00:02:13;27.27;;;13.48;;
22318;SDS011;11327;52.334;9.506;2023-02-22T00:05:35;24.43;;;12.03;;
22318;SDS011;11327;52.334;9.506;2023-02-22T00:08:58;24.23;;;12.18;;
22318;SDS011;11327;52.334;9.506;2023-02-22T00:12:21;23.95;;;12.40;;
22318;SDS011;11327;52.334;9.506;2023-02-22T00:15:42;23.87;;;11.53;;
22318;SDS011;11327;52.334;9.506;2023-02-22T00:19:03;24.10;;;12.47;;
22318;SDS011;11327;52.334;9.506;2023-02-22T00:22:25;25.85;;;12.00;;
22318;SDS011;11327;52.334;9.506;2023-02-22T00:25:46;22.82;;;11.15;;
22318;SDS011;11327;52.334;9.506;2023-02-22T00:29:08;21.60;;;10.72;;
22318;SDS011;11327;52.334;9.506;2023-02-22T00:32:29;22.87;;;11.60;;
22318;SDS011;11327;52.334;9.506;2023-02-22T00:35:50;24.25;;;11.45;;
22318;SDS011;11327;52.334;9.506;2023-02-22T00:39:11;22.82;;;11.75;;
22318;SDS011;11327;52.334;9.506;2023-02-22T00:42:31;22.25;;;11.10;;
22318;SDS011;11327;52.334;9.506;2023-02-22T00:45:52;22.80;;;11.18;;
22318;SDS011;11327;52.334;9.506;2023-02-22T00:49:13;23.10;;;11.80;;
22318;SDS011;11327;52.334;9.506;2023-02-22T00:52:34;23.90;;;11.70;;
22318;SDS011;11327;52.334;9.506;2023-02-22T00:55:55;24.75;;;12.18;;
22318;SDS011;11327;52.334;9.506;2023-02-22T00:59:16;27.85;;;12.50;;
22318;SDS011;11327;52.334;9.506;2023-02-22T01:02:41;26.42;;;12.58;;
22318;SDS011;11327;52.334;9.506;2023-02-22T01:06:00;28.30;;;14.07;;
22318;SDS011;11327;52.334;9.506;2023-02-22T01:09:21;31.33;;;14.18;;
22318;SDS011;11327;52.334;9.506;2023-02-22T01:12:42;29.82;;;13.60;;
22318;SDS011;11327;52.334;9.506;2023-02-22T01:16:03;27.75;;;12.93;;
22318;SDS011;11327;52.334;9.506;2023-02-22T01:19:26;27.98;;;12.90;;
22318;SDS011;11327;52.334;9.506;2023-02-22T01:22:47;29.02;;;14.58;;
22318;SDS011;11327;52.334;9.506;2023-02-22T01:26:10;32.15;;;14.98;;
22318;SDS011;11327;52.334;9.506;2023-02-22T01:29:31;29.42;;;13.43;;
22318;SDS011;11327;52.334;9.506;2023-02-22T01:32:52;28.30;;;13.38;;
22318;SDS011;11327;52.334;9.506;2023-02-22T01:36:13;29.30;;;13.80;;
22318;SDS011;11327;52.334;9.506;2023-02-22T01:39:34;29.42;;;14.18;;
22318;SDS011;11327;52.334;9.506;2023-02-22T01:42:56;32.23;;;13.88;;
22318;SDS011;11327;52.334;9.506;2023-02-22T01:49:46;29.02;;;13.05;;
22318;SDS011;11327;52.334;9.506;2023-02-22T01:53:09;27.93;;;13.83;;
22318;SDS011;11327;52.334;9.506;2023-02-22T01:56:33;29.45;;;14.18;;
22318;SDS011;11327;52.334;9.506;2023-02-22T02:00:03;31.27;;;14.07;;
22318;SDS011;11327;52.334;9.506;2023-02-22T02:03:23;31.85;;;14.87;;
22318;SDS011;11327;52.334;9.506;2023-02-22T02:06:47;30.88;;;14.23;;
22318;SDS011;11327;52.334;9.506;2023-02-22T02:10:09;27.35;;;13.38;;
22318;SDS011;11327;52.334;9.506;2023-02-22T02:13:33;32.28;;;14.47;;
22318;SDS011;11327;52.334;9.506;2023-02-22T02:16:54;29.35;;;14.38;;
22318;SDS011;11327;52.334;9.506;2023-02-22T02:20:23;29.10;;;13.13;;
22318;SDS011;11327;52.334;9.506;2023-02-22T02:23:59;27.15;;;12.07;;
22318;SDS011;11327;52.334;9.506;2023-02-22T02:27:35;28.85;;;12.63;;
22318;SDS011;11327;52.334;9.506;2023-02-22T02:34:59;30.68;;;12.73;;
22318;SDS011;11327;52.334;9.506;2023-02-22T02:38:29;27.62;;;12.18;;
22318;SDS011;11327;52.334;9.506;2023-02-22T02:41:51;24.47;;;11.57;;
22318;SDS011;11327;52.334;9.506;2023-02-22T02:45:14;27.02;;;11.10;;
22318;SDS011;11327;52.334;9.506;2023-02-22T02:48:37;22.82;;;10.50;;
22318;SDS011;11327;52.334;9.506;2023-02-22T02:52:02;27.80;;;11.88;;
22318;SDS011;11327;52.334;9.506;2023-02-22T02:55:24;26.55;;;11.18;;
22318;SDS011;11327;52.334;9.506;2023-02-22T02:58:49;25.08;;;10.90;;
22318;SDS011;11327;52.334;9.506;2023-02-22T03:09:53;23.75;;;10.43;;
22318;SDS011;11327;52.334;9.506;2023-02-22T03:20:22;18.67;;;8.28;;
22318;SDS011;11327;52.334;9.506;2023-02-22T03:24:08;21.17;;;8.93;;
22318;SDS011;11327;52.334;9.506;2023-02-22T03:27:39;20.60;;;8.73;;
22318;SDS011;11327;52.334;9.506;2023-02-22T03:31:02;20.08;;;8.45;;
22318;SDS011;11327;52.334;9.506;2023-02-22T03:34:44;16.82;;;7.58;;
22318;SDS011;11327;52.334;9.506;2023-02-22T03:38:16;16.95;;;7.62;;
22318;SDS011;11327;52.334;9.506;2023-02-22T03:41:39;13.93;;;6.55;;
22318;SDS011;11327;52.334;9.506;2023-02-22T03:45:03;13.25;;;6.10;;
22318;SDS011;11327;52.334;9.506;2023-02-22T03:48:30;15.35;;;6.95;;
22318;SDS011;11327;52.334;9.506;2023-02-22T03:55:24;15.95;;;6.58;;
22318;SDS011;11327;52.334;9.506;2023-02-22T03:58:45;12.65;;;6.47;;
22318;SDS011;11327;52.334;9.506;2023-02-22T04:02:07;12.20;;;6.40;;
22318;SDS011;11327;52.334;9.506;2023-02-22T04:05:28;13.90;;;6.62;;
22318;SDS011;11327;52.334;9.506;2023-02-22T04:08:49;12.33;;;6.60;;
22318;SDS011;11327;52.334;9.506;2023-02-22T04:12:10;15.80;;;7.67;;
22318;SDS011;11327;52.334;9.506;2023-02-22T04:15:30;15.72;;;8.05;;
22318;SDS011;11327;52.334;9.506;2023-02-22T04:18:51;16.52;;;8.83;;
22318;SDS011;11327;52.334;9.506;2023-02-22T04:22:12;16.80;;;8.83;;
22318;SDS011;11327;52.334;9.506;2023-02-22T04:25:32;19.90;;;9.53;;
22318;SDS011;11327;52.334;9.506;2023-02-22T04:28:53;22.00;;;10.13;;
22318;SDS011;11327;52.334;9.506;2023-02-22T04:32:14;20.62;;;9.03;;
22318;SDS011;11327;52.334;9.506;2023-02-22T04:35:35;20.10;;;9.03;;
22318;SDS011;11327;52.334;9.506;2023-02-22T04:38:56;20.60;;;10.30;;
22318;SDS011;11327;52.334;9.506;2023-02-22T04:42:17;21.15;;;9.55;;
22318;SDS011;11327;52.334;9.506;2023-02-22T04:45:38;21.87;;;10.10;;
22318;SDS011;11327;52.334;9.506;2023-02-22T04:48:59;21.00;;;10.38;;
22318;SDS011;11327;52.334;9.506;2023-02-22T04:52:20;22.58;;;11.05;;
22318;SDS011;11327;52.334;9.506;2023-02-22T04:55:41;26.77;;;11.73;;
22318;SDS011;11327;52.334;9.506;2023-02-22T04:59:02;26.50;;;11.45;;
22318;SDS011;11327;52.334;9.506;2023-02-22T05:02:22;24.98;;;11.83;;
22318;SDS011;11327;52.334;9.506;2023-02-22T05:05:43;20.77;;;10.93;;
22318;SDS011;11327;52.334;9.506;2023-02-22T05:09:04;26.27;;;11.63;;
22318;SDS011;11327;52.334;9.506;2023-02-22T05:12:26;24.95;;;11.83;;
22318;SDS011;11327;52.334;9.506;2023-02-22T05:15:47;25.15;;;11.63;;
22318;SDS011;11327;52.334;9.506;2023-02-22T05:19:07;29.50;;;12.55;;
22318;SDS011;11327;52.334;9.506;2023-02-22T05:22:28;25.40;;;10.82;;
22318;SDS011;11327;52.334;9.506;2023-02-22T05:25:50;25.35;;;11.65;;
22318;SDS011;11327;52.334;9.506;2023-02-22T05:29:11;27.82;;;11.83;;
22318;SDS011;11327;52.334;9.506;2023-02-22T05:32:33;24.60;;;11.80;;
22318;SDS011;11327;52.334;9.506;2023-02-22T05:35:54;26.00;;;10.85;;
22318;SDS011;11327;52.334;9.506;2023-02-22T05:39:15;26.23;;;11.25;;
22318;SDS011;11327;52.334;9.506;2023-02-22T05:42:36;26.05;;;10.75;;
22318;SDS011;11327;52.334;9.506;2023-02-22T05:45:56;26.95;;;11.78;;
22318;SDS011;11327;52.334;9.506;2023-02-22T05:49:17;27.42;;;12.15;;
22318;SDS011;11327;52.334;9.506;2023-02-22T05:52:38;27.52;;;11.65;;
22318;SDS011;11327;52.334;9.506;2023-02-22T05:55:59;25.30;;;11.18;;
22318;SDS011;11327;52.334;9.506;2023-02-22T05:59:19;24.05;;;10.65;;
22318;SDS011;11327;52.334;9.506;2023-02-22T06:02:40;28.30;;;11.95;;
22318;SDS011;11327;52.334;9.506;2023-02-22T06:06:01;23.75;;;11.22;;
22318;SDS011;11327;52.334;9.506;2023-02-22T06:09:21;23.27;;;10.58;;
22318;SDS011;11327;52.334;9.506;2023-02-22T06:12:42;25.70;;;11.63;;
22318;SDS011;11327;52.334;9.506;2023-02-22T06:16:03;25.75;;;10.65;;
22318;SDS011;11327;52.334;9.506;2023-02-22T06:19:25;26.75;;;11.15;;
22318;SDS011;11327;52.334;9.506;2023-02-22T06:22:47;23.32;;;10.95;;
22318;SDS011;11327;52.334;9.506;2023-02-22T06:26:14;23.73;;;10.60;;
22318;SDS011;11327;52.334;9.506;2023-02-22T06:29:35;27.52;;;11.78;;
22318;SDS011;11327;52.334;9.506;2023-02-22T06:32:56;22.07;;;10.58;;
22318;SDS011;11327;52.334;9.506;2023-02-22T06:36:17;22.37;;;10.68;;
22318;SDS011;11327;52.334;9.506;2023-02-22T06:39:38;23.73;;;10.60;;
22318;SDS011;11327;52.334;9.506;2023-02-22T06:42:58;28.40;;;11.60;;
22318;SDS011;11327;52.334;9.506;2023-02-22T06:46:19;22.73;;;11.18;;
22318;SDS011;11327;52.334;9.506;2023-02-22T06:49:41;24.92;;;11.38;;
22318;SDS011;11327;52.334;9.506;2023-02-22T06:53:01;26.95;;;11.03;;
22318;SDS011;11327;52.334;9.506;2023-02-22T06:56:22;26.57;;;11.40;;
22318;SDS011;11327;52.334;9.506;2023-02-22T06:59:43;27.27;;;11.93;;
22318;SDS011;11327;52.334;9.506;2023-02-22T07:03:04;25.80;;;11.20;;
22318;SDS011;11327;52.334;9.506;2023-02-22T07:06:25;24.55;;;11.70;;
22318;SDS011;11327;52.334;9.506;2023-02-22T07:09:45;28.15;;;12.18;;
22318;SDS011;11327;52.334;9.506;2023-02-22T07:13:07;25.60;;;11.57;;
22318;SDS011;11327;52.334;9.506;2023-02-22T07:16:28;30.80;;;13.13;;
22318;SDS011;11327;52.334;9.506;2023-02-22T07:19:49;29.92;;;13.68;;
22318;SDS011;11327;52.334;9.506;2023-02-22T07:23:12;28.25;;;13.93;;
22318;SDS011;11327;52.334;9.506;2023-02-22T07:26:39;32.13;;;13.65;;
22318;SDS011;11327;52.334;9.506;2023-02-22T07:30:01;33.63;;;15.25;;
22318;SDS011;11327;52.334;9.506;2023-02-22T07:33:21;35.03;;;15.55;;
22318;SDS011;11327;52.334;9.506;2023-02-22T07:36:42;38.10;;;15.75;;
22318;SDS011;11327;52.334;9.506;2023-02-22T07:40:03;38.08;;;16.20;;
22318;SDS011;11327;52.334;9.506;2023-02-22T07:43:24;34.78;;;17.20;;
22318;SDS011;11327;52.334;9.506;2023-02-22T07:46:47;33.95;;;16.55;;
22318;SDS011;11327;52.334;9.506;2023-02-22T07:50:08;39.23;;;16.30;;
22318;SDS011;11327;52.334;9.506;2023-02-22T07:53:30;34.80;;;16.97;;
22318;SDS011;11327;52.334;9.506;2023-02-22T07:56:52;35.17;;;16.87;;
22318;SDS011;11327;52.334;9.506;2023-02-22T08:00:14;31.23;;;15.75;;
22318;SDS011;11327;52.334;9.506;2023-02-22T08:03:36;32.48;;;17.10;;
22318;SDS011;11327;52.334;9.506;2023-02-22T08:06:57;33.90;;;16.15;;
22318;SDS011;11327;52.334;9.506;2023-02-22T08:10:19;34.27;;;17.52;;
22318;SDS011;11327;52.334;9.506;2023-02-22T08:13:42;33.90;;;16.97;;
22318;SDS011;11327;52.334;9.506;2023-02-22T08:17:03;33.65;;;16.60;;
22318;SDS011;11327;52.334;9.506;2023-02-22T08:20:24;33.60;;;15.83;;
22318;SDS011;11327;52.334;9.506;2023-02-22T08:23:45;36.25;;;16.32;;
22318;SDS011;11327;52.334;9.506;2023-02-22T08:27:09;30.52;;;16.65;;
22318;SDS011;11327;52.334;9.506;2023-02-22T08:30:30;30.48;;;15.40;;
22318;SDS011;11327;52.334;9.506;2023-02-22T08:33:54;30.75;;;16.65;;
22318;SDS011;11327;52.334;9.506;2023-02-22T08:37:15;35.43;;;18.07;;
22318;SDS011;11327;52.334;9.506;2023-02-22T08:40:36;32.78;;;16.20;;
22318;SDS011;11327;52.334;9.506;2023-02-22T08:43:58;32.75;;;17.10;;
22318;SDS011;11327;52.334;9.506;2023-02-22T08:47:20;29.05;;;15.72;;
22318;SDS011;11327;52.334;9.506;2023-02-22T08:50:41;29.20;;;15.63;;
22318;SDS011;11327;52.334;9.506;2023-02-22T08:54:03;32.70;;;16.45;;
22318;SDS011;11327;52.334;9.506;2023-02-22T08:57:26;29.37;;;15.93;;
22318;SDS011;11327;52.334;9.506;2023-02-22T09:00:46;29.23;;;15.75;;
22318;SDS011;11327;52.334;9.506;2023-02-22T09:04:08;31.25;;;16.50;;
22318;SDS011;11327;52.334;9.506;2023-02-22T09:07:29;29.32;;;15.40;;
22318;SDS011;11327;52.334;9.506;2023-02-22T09:10:50;30.02;;;15.95;;
22318;SDS011;11327;52.334;9.506;2023-02-22T09:14:11;31.50;;;16.57;;
22318;SDS011;11327;52.334;9.506;2023-02-22T09:17:33;30.08;;;15.68;;
22318;SDS011;11327;52.334;9.506;2023-02-22T09:20:56;30.88;;;16.82;;
22318;SDS011;11327;52.334;9.506;2023-02-22T09:24:17;30.65;;;16.20;;
22318;SDS011;11327;52.334;9.506;2023-02-22T09:27:38;27.98;;;15.75;;
22318;SDS011;11327;52.334;9.506;2023-02-22T09:30:59;28.32;;;16.17;;
22318;SDS011;11327;52.334;9.506;2023-02-22T09:34:20;30.82;;;16.77;;
22318;SDS011;11327;52.334;9.506;2023-02-22T09:37:44;29.85;;;16.52;;
22318;SDS011;11327;52.334;9.506;2023-02-22T09:44:46;28.27;;;15.20;;
22318;SDS011;11327;52.334;9.506;2023-02-22T09:48:10;28.65;;;15.78;;
22318;SDS011;11327;52.334;9.506;2023-02-22T09:51:39;29.18;;;16.50;;
22318;SDS011;11327;52.334;9.506;2023-02-22T09:58:51;31.48;;;17.15;;
22318;SDS011;11327;52.334;9.506;2023-02-22T10:02:32;29.55;;;16.40;;
22318;SDS011;11327;52.334;9.506;2023-02-22T10:05:59;29.10;;;16.73;;
22318;SDS011;11327;52.334;9.506;2023-02-22T10:09:25;30.35;;;17.45;;
22318;SDS011;11327;52.334;9.506;2023-02-22T10:13:07;27.77;;;16.80;;
22318;SDS011;11327;52.334;9.506;2023-02-22T10:16:39;30.48;;;17.75;;
22318;SDS011;11327;52.334;9.506;2023-02-22T10:20:03;29.65;;;17.25;;
22318;SDS011;11327;52.334;9.506;2023-02-22T10:23:32;32.40;;;18.27;;
22318;SDS011;11327;52.334;9.506;2023-02-22T10:26:59;29.25;;;16.62;;
22318;SDS011;11327;52.334;9.506;2023-02-22T10:30:22;27.27;;;16.57;;
22318;SDS011;11327;52.334;9.506;2023-02-22T10:33:46;28.87;;;16.90;;
22318;SDS011;11327;52.334;9.506;2023-02-22T10:44:34;28.87;;;17.40;;
22318;SDS011;11327;52.334;9.506;2023-02-22T10:47:57;28.85;;;17.15;;
22318;SDS011;11327;52.334;9.506;2023-02-22T10:51:21;31.48;;;18.27;;
22318;SDS011;11327;52.334;9.506;2023-02-22T10:54:43;32.15;;;18.92;;
22318;SDS011;11327;52.334;9.506;2023-02-22T10:58:06;31.02;;;18.60;;
22318;SDS011;11327;52.334;9.506;2023-02-22T11:04:56;29.32;;;18.50;;
22318;SDS011;11327;52.334;9.506;2023-02-22T11:11:47;31.93;;;17.85;;
22318;SDS011;11327;52.334;9.506;2023-02-22T11:15:28;29.48;;;17.90;;
22318;SDS011;11327;52.334;9.506;2023-02-22T11:18:41;30.02;;;18.12;;
22318;SDS011;11327;52.334;9.506;2023-02-22T11:22:12;29.25;;;18.42;;
22318;SDS011;11327;52.334;9.506;2023-02-22T11:25:37;27.65;;;17.35;;
22318;SDS011;11327;52.334;9.506;2023-02-22T11:28:59;25.37;;;16.35;;
22318;SDS011;11327;52.334;9.506;2023-02-22T11:32:23;27.58;;;16.62;;
22318;SDS011;11327;52.334;9.506;2023-02-22T11:35:49;26.07;;;16.82;;
22318;SDS011;11327;52.334;9.506;2023-02-22T11:39:23;27.02;;;17.40;;
22318;SDS011;11327;52.334;9.506;2023-02-22T11:42:46;27.25;;;16.77;;
22318;SDS011;11327;52.334;9.506;2023-02-22T11:46:29;28.12;;;17.25;;
22318;SDS011;11327;52.334;9.506;2023-02-22T11:49:52;26.65;;;16.97;;
22318;SDS011;11327;52.334;9.506;2023-02-22T12:08:22;25.27;;;15.38;;
22318;SDS011;11327;52.334;9.506;2023-02-22T12:15:22;22.00;;;14.63;;
22318;SDS011;11327;52.334;9.506;2023-02-22T12:22:31;24.12;;;15.53;;
22318;SDS011;11327;52.334;9.506;2023-02-22T12:26:02;25.37;;;15.93;;
22318;SDS011;11327;52.334;9.506;2023-02-22T12:29:30;21.77;;;14.28;;
22318;SDS011;11327;52.334;9.506;2023-02-22T12:33:02;24.25;;;14.58;;
22318;SDS011;11327;52.334;9.506;2023-02-22T12:36:24;22.07;;;13.83;;
22318;SDS011;11327;52.334;9.506;2023-02-22T12:39:51;24.32;;;14.95;;
22318;SDS011;11327;52.334;9.506;2023-02-22T12:43:17;19.45;;;13.68;;
22318;SDS011;11327;52.334;9.506;2023-02-22T12:46:49;20.57;;;14.20;;
22318;SDS011;11327;52.334;9.506;2023-02-22T12:50:17;21.20;;;13.50;;
22318;SDS011;11327;52.334;9.506;2023-02-22T12:53:40;17.90;;;12.30;;
22318;SDS011;11327;52.334;9.506;2023-02-22T12:57:08;20.92;;;13.43;;
22318;SDS011;11327;52.334;9.506;2023-02-22T13:00:59;20.77;;;13.05;;
22318;SDS011;11327;52.334;9.506;2023-02-22T13:04:22;18.98;;;12.55;;
22318;SDS011;11327;52.334;9.506;2023-02-22T13:07:47;17.20;;;12.30;;
22318;SDS011;11327;52.334;9.506;2023-02-22T13:11:15;17.48;;;11.60;;
22318;SDS011;11327;52.334;9.506;2023-02-22T13:18:35;19.37;;;11.48;;
22318;SDS011;11327;52.334;9.506;2023-02-22T13:29:22;16.87;;;10.82;;
22318;SDS011;11327;52.334;9.506;2023-02-22T13:36:33;14.18;;;10.13;;
22318;SDS011;11327;52.334;9.506;2023-02-22T13:39:58;14.93;;;10.48;;
22318;SDS011;11327;52.334;9.506;2023-02-22T13:50:57;14.00;;;9.88;;
22318;SDS011;11327;52.334;9.506;2023-02-22T13:58:02;13.30;;;9.43;;
22318;SDS011;11327;52.334;9.506;2023-02-22T14:01:39;13.13;;;9.15;;
22318;SDS011;11327;52.334;9.506;2023-02-22T14:05:33;13.20;;;9.08;;
22318;SDS011;11327;52.334;9.506;2023-02-22T14:11:53;11.78;;;8.58;;
22318;SDS011;11327;52.334;9.506;2023-02-22T14:15:17;14.10;;;8.43;;
22318;SDS011;11327;52.334;9.506;2023-02-22T14:18:41;12.00;;;8.45;;
22318;SDS011;11327;52.334;9.506;2023-02-22T14:22:03;12.23;;;8.55;;
22318;SDS011;11327;52.334;9.506;2023-02-22T14:25:39;13.70;;;8.63;;
22318;SDS011;11327;52.334;9.506;2023-02-22T14:29:20;10.32;;;7.70;;
22318;SDS011;11327;52.334;9.506;2023-02-22T14:32:41;10.03;;;7.30;;
22318;SDS011;11327;52.334;9.506;2023-02-22T14:36:02;14.00;;;8.05;;
22318;SDS011;11327;52.334;9.506;2023-02-22T14:39:31;10.80;;;7.62;;
22318;SDS011;11327;52.334;9.506;2023-02-22T14:43:09;10.53;;;6.97;;
22318;SDS011;11327;52.334;9.506;2023-02-22T14:46:32;9.85;;;7.72;;
22318;SDS011;11327;52.334;9.506;2023-02-22T14:50:00;9.98;;;7.33;;
22318;SDS011;11327;52.334;9.506;2023-02-22T14:57:03;10.90;;;7.62;;
22318;SDS011;11327;52.334;9.506;2023-02-22T15:00:35;11.73;;;7.20;;
22318;SDS011;11327;52.334;9.506;2023-02-22T15:03:57;9.20;;;7.30;;
22318;SDS011;11327;52.334;9.506;2023-02-22T15:07:25;12.55;;;8.10;;
22318;SDS011;11327;52.334;9.506;2023-02-22T15:10:50;9.40;;;6.78;;
22318;SDS011;11327;52.334;9.506;2023-02-22T15:14:14;8.83;;;6.85;;
22318;SDS011;11327;52.334;9.506;2023-02-22T15:17:45;9.75;;;7.40;;
22318;SDS011;11327;52.334;9.506;2023-02-22T15:21:06;9.18;;;6.47;;
22318;SDS011;11327;52.334;9.506;2023-02-22T15:24:36;10.45;;;6.97;;
22318;SDS011;11327;52.334;9.506;2023-02-22T15:28:01;13.20;;;7.75;;
22318;SDS011;11327;52.334;9.506;2023-02-22T15:31:25;11.03;;;7.35;;
22318;SDS011;11327;52.334;9.506;2023-02-22T15:34:50;10.80;;;6.67;;
22318;SDS011;11327;52.334;9.506;2023-02-22T15:38:16;9.73;;;6.25;;
22318;SDS011;11327;52.334;9.506;2023-02-22T15:41:35;10.25;;;6.85;;
22318;SDS011;11327;52.334;9.506;2023-02-22T15:44:56;9.30;;;6.78;;
22318;SDS011;11327;52.334;9.506;2023-02-22T15:48:17;9.60;;;6.08;;
22318;SDS011;11327;52.334;9.506;2023-02-22T15:51:38;10.48;;;6.75;;
22318;SDS011;11327;52.334;9.506;2023-02-22T15:55:02;8.35;;;6.20;;
22318;SDS011;11327;52.334;9.506;2023-02-22T15:58:25;7.70;;;5.37;;
22318;SDS011;11327;52.334;9.506;2023-02-22T16:01:49;11.22;;;6.22;;
22318;SDS011;11327;52.334;9.506;2023-02-22T16:05:12;6.87;;;5.60;;
22318;SDS011;11327;52.334;9.506;2023-02-22T16:08:40;6.67;;;5.22;;
22318;SDS011;11327;52.334;9.506;2023-02-22T16:12:22;10.55;;;6.60;;
22318;SDS011;11327;52.334;9.506;2023-02-22T16:15:50;16.73;;;14.98;;
22318;SDS011;11327;52.334;9.506;2023-02-22T16:19:36;22.58;;;20.32;;
22318;SDS011;11327;52.334;9.506;2023-02-22T16:23:21;12.23;;;10.90;;
22318;SDS011;11327;52.334;9.506;2023-02-22T16:26:47;9.63;;;7.08;;
22318;SDS011;11327;52.334;9.506;2023-02-22T16:30:15;7.95;;;6.67;;
22318;SDS011;11327;52.334;9.506;2023-02-22T16:33:39;9.45;;;6.20;;
22318;SDS011;11327;52.334;9.506;2023-02-22T16:37:00;7.92;;;5.87;;
22318;SDS011;11327;52.334;9.506;2023-02-22T16:40:26;6.85;;;5.17;;
22318;SDS011;11327;52.334;9.506;2023-02-22T16:43:46;6.60;;;5.22;;
22318;SDS011;11327;52.334;9.506;2023-02-22T16:47:12;8.20;;;6.05;;
22318;SDS011;11327;52.334;9.506;2023-02-22T16:50:33;8.83;;;5.70;;
22318;SDS011;11327;52.334;9.506;2023-02-22T16:53:54;8.80;;;5.75;;
22318;SDS011;11327;52.334;9.506;2023-02-22T16:57:19;6.53;;;4.50;;
22318;SDS011;11327;52.334;9.506;2023-02-22T17:00:41;6.37;;;4.60;;
22318;SDS011;11327;52.334;9.506;2023-02-22T17:04:05;6.47;;;4.65;;
22318;SDS011;11327;52.334;9.506;2023-02-22T17:07:33;5.37;;;4.28;;
22318;SDS011;11327;52.334;9.506;2023-02-22T17:10:54;6.05;;;4.50;;
22318;SDS011;11327;52.334;9.506;2023-02-22T17:14:18;8.73;;;5.97;;
22318;SDS011;11327;52.334;9.506;2023-02-22T17:17:42;8.73;;;6.00;;
22318;SDS011;11327;52.334;9.506;2023-02-22T17:21:03;8.48;;;6.45;;
22318;SDS011;11327;52.334;9.506;2023-02-22T17:24:24;8.45;;;6.00;;
22318;SDS011;11327;52.334;9.506;2023-02-22T17:27:47;7.85;;;6.25;;
22318;SDS011;11327;52.334;9.506;2023-02-22T17:31:09;9.20;;;6.40;;
22318;SDS011;11327;52.334;9.506;2023-02-22T17:34:32;7.58;;;5.80;;
22318;SDS011;11327;52.334;9.506;2023-02-22T17:37:53;11.73;;;8.35;;
22318;SDS011;11327;52.334;9.506;2023-02-22T17:41:14;9.25;;;7.50;;
22318;SDS011;11327;52.334;9.506;2023-02-22T17:44:34;10.10;;;7.22;;
22318;SDS011;11327;52.334;9.506;2023-02-22T17:47:55;12.07;;;9.10;;
22318;SDS011;11327;52.334;9.506;2023-02-22T17:51:18;10.63;;;7.87;;
22318;SDS011;11327;52.334;9.506;2023-02-22T17:54:40;12.53;;;9.55;;
22318;SDS011;11327;52.334;9.506;2023-02-22T17:58:01;12.75;;;9.68;;
22318;SDS011;11327;52.334;9.506;2023-02-22T18:01:24;14.38;;;10.58;;
22318;SDS011;11327;52.334;9.506;2023-02-22T18:04:46;13.90;;;10.55;;
22318;SDS011;11327;52.334;9.506;2023-02-22T18:08:07;12.88;;;9.75;;
22318;SDS011;11327;52.334;9.506;2023-02-22T18:11:28;12.05;;;9.85;;
22318;SDS011;11327;52.334;9.506;2023-02-22T18:14:51;12.33;;;10.03;;
22318;SDS011;11327;52.334;9.506;2023-02-22T18:18:12;13.68;;;10.55;;
22318;SDS011;11327;52.334;9.506;2023-02-22T18:21:35;18.52;;;12.15;;
22318;SDS011;11327;52.334;9.506;2023-02-22T18:24:56;16.60;;;13.00;;
22318;SDS011;11327;52.334;9.506;2023-02-22T18:28:18;12.05;;;9.23;;
22318;SDS011;11327;52.334;9.506;2023-02-22T18:31:40;11.40;;;8.38;;
22318;SDS011;11327;52.334;9.506;2023-02-22T18:35:03;8.93;;;7.97;;
22318;SDS011;11327;52.334;9.506;2023-02-22T18:38:24;9.80;;;8.23;;
22318;SDS011;11327;52.334;9.506;2023-02-22T18:41:45;10.70;;;8.45;;
22318;SDS011;11327;52.334;9.506;2023-02-22T18:45:09;10.82;;;8.60;;
22318;SDS011;11327;52.334;9.506;2023-02-22T18:48:30;10.98;;;7.78;;
22318;SDS011;11327;52.334;9.506;2023-02-22T18:51:50;11.48;;;9.48;;
22318;SDS011;11327;52.334;9.506;2023-02-22T18:55:16;13.88;;;11.12;;
22318;SDS011;11327;52.334;9.506;2023-02-22T18:58:35;13.90;;;10.55;;
22318;SDS011;11327;52.334;9.506;2023-02-22T19:01:58;19.07;;;13.45;;
22318;SDS011;11327;52.334;9.506;2023-02-22T19:05:18;16.67;;;13.53;;
22318;SDS011;11327;52.334;9.506;2023-02-22T19:08:40;16.07;;;12.90;;
22318;SDS011;11327;52.334;9.506;2023-02-22T19:12:01;12.37;;;10.85;;
22318;SDS011;11327;52.334;9.506;2023-02-22T19:15:22;9.90;;;8.68;;
22318;SDS011;11327;52.334;9.506;2023-02-22T19:18:43;9.63;;;7.87;;
22318;SDS011;11327;52.334;9.506;2023-02-22T19:22:05;10.85;;;8.68;;
22318;SDS011;11327;52.334;9.506;2023-02-22T19:25:25;11.12;;;8.25;;
22318;SDS011;11327;52.334;9.506;2023-02-22T19:28:47;9.13;;;8.00;;
22318;SDS011;11327;52.334;9.506;2023-02-22T19:32:08;11.08;;;8.70;;
22318;SDS011;11327;52.334;9.506;2023-02-22T19:35:30;11.78;;;9.10;;
22318;SDS011;11327;52.334;9.506;2023-02-22T19:38:51;8.88;;;7.78;;
22318;SDS011;11327;52.334;9.506;2023-02-22T19:42:11;10.68;;;8.10;;
22318;SDS011;11327;52.334;9.506;2023-02-22T19:45:32;10.65;;;8.50;;
22318;SDS011;11327;52.334;9.506;2023-02-22T19:48:53;10.08;;;8.93;;
22318;SDS011;11327;52.334;9.506;2023-02-22T19:52:17;10.53;;;8.50;;
22318;SDS011;11327;52.334;9.506;2023-02-22T19:55:38;10.28;;;8.43;;
22318;SDS011;11327;52.334;9.506;2023-02-22T19:58:59;12.00;;;9.93;;
22318;SDS011;11327;52.334;9.506;2023-02-22T20:02:23;11.33;;;9.75;;
22318;SDS011;11327;52.334;9.506;2023-02-22T20:05:45;12.47;;;9.00;;
22318;SDS011;11327;52.334;9.506;2023-02-22T20:09:07;9.00;;;6.62;;
22318;SDS011;11327;52.334;9.506;2023-02-22T20:12:30;7.55;;;6.30;;
22318;SDS011;11327;52.334;9.506;2023-02-22T20:15:51;8.30;;;6.45;;
22318;SDS011;11327;52.334;9.506;2023-02-22T20:19:12;9.23;;;6.33;;
22318;SDS011;11327;52.334;9.506;2023-02-22T20:22:33;7.28;;;6.03;;
22318;SDS011;11327;52.334;9.506;2023-02-22T20:25:54;8.95;;;6.40;;
22318;SDS011;11327;52.334;9.506;2023-02-22T20:29:16;7.22;;;5.72;;
22318;SDS011;11327;52.334;9.506;2023-02-22T20:32:37;6.80;;;5.78;;
22318;SDS011;11327;52.334;9.506;2023-02-22T20:36:02;8.13;;;6.85;;
22318;SDS011;11327;52.334;9.506;2023-02-22T20:39:23;7.75;;;6.35;;
22318;SDS011;11327;52.334;9.506;2023-02-22T20:42:44;9.53;;;7.15;;
22318;SDS011;11327;52.334;9.506;2023-02-22T20:46:06;8.78;;;6.90;;
22318;SDS011;11327;52.334;9.506;2023-02-22T20:49:27;10.18;;;7.10;;
22318;SDS011;11327;52.334;9.506;2023-02-22T20:52:48;8.80;;;6.95;;
22318;SDS011;11327;52.334;9.506;2023-02-22T20:56:13;12.23;;;8.18;;
22318;SDS011;11327;52.334;9.506;2023-02-22T20:59:35;10.15;;;7.45;;
22318;SDS011;11327;52.334;9.506;2023-02-22T21:02:56;9.85;;;7.80;;
22318;SDS011;11327;52.334;9.506;2023-02-22T21:06:18;12.00;;;8.15;;
22318;SDS011;11327;52.334;9.506;2023-02-22T21:09:40;10.58;;;7.65;;
22318;SDS011;11327;52.334;9.506;2023-02-22T21:13:01;10.15;;;7.60;;
22318;SDS011;11327;52.334;9.506;2023-02-22T21:16:26;9.23;;;7.35;;
22318;SDS011;11327;52.334;9.506;2023-02-22T21:19:45;10.48;;;7.72;;
22318;SDS011;11327;52.334;9.506;2023-02-22T21:23:06;9.58;;;7.35;;
22318;SDS011;11327;52.334;9.506;2023-02-22T21:26:31;11.12;;;8.00;;
22318;SDS011;11327;52.334;9.506;2023-02-22T21:29:54;8.48;;;6.95;;
22318;SDS011;11327;52.334;9.506;2023-02-22T21:33:16;10.55;;;7.58;;
22318;SDS011;11327;52.334;9.506;2023-02-22T21:36:37;20.80;;;14.50;;
22318;SDS011;11327;52.334;9.506;2023-02-22T21:39:58;10.23;;;7.78;;
22318;SDS011;11327;52.334;9.506;2023-02-22T21:43:19;8.73;;;7.03;;